sensor_id;sensor_type;location;lat;lon;timestamp;P1;durP1;ratioP1;P2;durP2;ratioP2
73699;SDS011;62005;50.082;8.988;2022-09-06T00:01:50;1.20;;;0.60;;
73699;SDS011;62005;50.082;8.988;2022-09-06T00:04:16;4.47;;;0.80;;
73699;SDS011;62005;50.082;8.988;2022-09-06T00:06:41;3.53;;;0.70;;
73699;SDS011;62005;50.082;8.988;2022-09-06T00:09:07;2.80;;;0.83;;
73699;SDS011;62005;50.082;8.988;2022-09-06T00:11:32;1.80;;;0.80;;
73699;SDS011;62005;50.082;8.988;2022-09-06T00:13:57;2.67;;;0.70;;
73699;SDS011;62005;50.082;8.988;2022-09-06T00:16:23;2.95;;;0.82;;
73699;SDS011;62005;50.082;8.988;2022-09-06T00:18:51;1.67;;;0.60;;
73699;SDS011;62005;50.082;8.988;2022-09-06T00:21:23;1.50;;;0.60;;
73699;SDS011;62005;50.082;8.988;2022-09-06T00:23:50;1.52;;;0.70;;
73699;SDS011;62005;50.082;8.988;2022-09-06T00:26:16;3.72;;;0.65;;
73699;SDS011;62005;50.082;8.988;2022-09-06T00:28:42;2.70;;;0.77;;
73699;SDS011;62005;50.082;8.988;2022-09-06T00:31:12;1.73;;;1.00;;
73699;SDS011;62005;50.082;8.988;2022-09-06T00:33:39;1.88;;;0.70;;
73699;SDS011;62005;50.082;8.988;2022-09-06T00:36:06;1.65;;;0.60;;
73699;SDS011;62005;50.082;8.988;2022-09-06T00:38:33;2.70;;;0.73;;
73699;SDS011;62005;50.082;8.988;2022-09-06T00:40:59;1.42;;;0.52;;
73699;SDS011;62005;50.082;8.988;2022-09-06T00:43:24;2.60;;;1.02;;
73699;SDS011;62005;50.082;8.988;2022-09-06T00:45:50;1.90;;;0.63;;
73699;SDS011;62005;50.082;8.988;2022-09-06T00:48:17;4.72;;;0.80;;
73699;SDS011;62005;50.082;8.988;2022-09-06T00:50:43;2.45;;;0.73;;
73699;SDS011;62005;50.082;8.988;2022-09-06T00:53:12;4.22;;;0.80;;
73699;SDS011;62005;50.082;8.988;2022-09-06T00:55:38;1.83;;;0.85;;
73699;SDS011;62005;50.082;8.988;2022-09-06T00:58:05;2.17;;;0.82;;
73699;SDS011;62005;50.082;8.988;2022-09-06T01:00:31;3.80;;;0.93;;
73699;SDS011;62005;50.082;8.988;2022-09-06T01:02:57;1.35;;;0.60;;
73699;SDS011;62005;50.082;8.988;2022-09-06T01:05:23;3.58;;;0.60;;
73699;SDS011;62005;50.082;8.988;2022-09-06T01:08:04;2.00;;;0.60;;
73699;SDS011;62005;50.082;8.988;2022-09-06T01:32:50;2.47;;;0.93;;
73699;SDS011;62005;50.082;8.988;2022-09-06T01:37:44;2.38;;;0.60;;
73699;SDS011;62005;50.082;8.988;2022-09-06T01:40:09;1.13;;;0.55;;
73699;SDS011;62005;50.082;8.988;2022-09-06T01:42:35;1.53;;;0.47;;
73699;SDS011;62005;50.082;8.988;2022-09-06T01:45:08;5.28;;;0.60;;
73699;SDS011;62005;50.082;8.988;2022-09-06T01:50:39;1.40;;;0.52;;
73699;SDS011;62005;50.082;8.988;2022-09-06T01:56:06;1.55;;;0.70;;
73699;SDS011;62005;50.082;8.988;2022-09-06T02:01:29;3.80;;;0.80;;
73699;SDS011;62005;50.082;8.988;2022-09-06T02:06:48;2.85;;;0.80;;
73699;SDS011;62005;50.082;8.988;2022-09-06T02:09:20;5.00;;;0.50;;
73699;SDS011;62005;50.082;8.988;2022-09-06T02:11:53;1.65;;;0.68;;
73699;SDS011;62005;50.082;8.988;2022-09-06T02:14:26;1.83;;;1.00;;
73699;SDS011;62005;50.082;8.988;2022-09-06T02:16:57;1.30;;;0.73;;
73699;SDS011;62005;50.082;8.988;2022-09-06T02:19:28;1.90;;;0.75;;
73699;SDS011;62005;50.082;8.988;2022-09-06T02:21:59;1.55;;;0.70;;
73699;SDS011;62005;50.082;8.988;2022-09-06T02:24:28;3.55;;;1.05;;
73699;SDS011;62005;50.082;8.988;2022-09-06T02:26:56;2.45;;;0.80;;
73699;SDS011;62005;50.082;8.988;2022-09-06T02:29:21;5.57;;;1.00;;
73699;SDS011;62005;50.082;8.988;2022-09-06T02:32:31;2.13;;;0.73;;
73699;SDS011;62005;50.082;8.988;2022-09-06T02:34:42;5.75;;;0.70;;
73699;SDS011;62005;50.082;8.988;2022-09-06T02:37:10;1.60;;;0.80;;
73699;SDS011;62005;50.082;8.988;2022-09-06T02:42:02;2.85;;;0.95;;
73699;SDS011;62005;50.082;8.988;2022-09-06T02:44:31;1.88;;;0.80;;
73699;SDS011;62005;50.082;8.988;2022-09-06T02:46:56;1.73;;;0.63;;
73699;SDS011;62005;50.082;8.988;2022-09-06T02:49:22;4.63;;;0.90;;
73699;SDS011;62005;50.082;8.988;2022-09-06T02:51:47;2.53;;;0.77;;
73699;SDS011;62005;50.082;8.988;2022-09-06T02:54:13;2.67;;;0.93;;
73699;SDS011;62005;50.082;8.988;2022-09-06T02:56:38;3.58;;;0.88;;
73699;SDS011;62005;50.082;8.988;2022-09-06T02:59:04;3.20;;;0.90;;
73699;SDS011;62005;50.082;8.988;2022-09-06T03:01:30;4.18;;;0.88;;
73699;SDS011;62005;50.082;8.988;2022-09-06T03:03:56;2.80;;;1.15;;
73699;SDS011;62005;50.082;8.988;2022-09-06T03:06:21;2.67;;;0.70;;
73699;SDS011;62005;50.082;8.988;2022-09-06T03:08:47;4.25;;;0.75;;
73699;SDS011;62005;50.082;8.988;2022-09-06T03:11:12;2.90;;;1.33;;
73699;SDS011;62005;50.082;8.988;2022-09-06T03:13:38;3.85;;;0.77;;
73699;SDS011;62005;50.082;8.988;2022-09-06T03:16:03;1.58;;;0.95;;
73699;SDS011;62005;50.082;8.988;2022-09-06T03:18:29;2.60;;;0.70;;
73699;SDS011;62005;50.082;8.988;2022-09-06T03:23:22;2.63;;;0.82;;
73699;SDS011;62005;50.082;8.988;2022-09-06T03:25:49;6.32;;;0.95;;
73699;SDS011;62005;50.082;8.988;2022-09-06T03:28:15;1.88;;;0.73;;
73699;SDS011;62005;50.082;8.988;2022-09-06T03:33:11;1.95;;;0.82;;
73699;SDS011;62005;50.082;8.988;2022-09-06T03:35:37;2.70;;;0.93;;
73699;SDS011;62005;50.082;8.988;2022-09-06T03:38:03;3.80;;;0.82;;
73699;SDS011;62005;50.082;8.988;2022-09-06T03:40:28;1.58;;;0.70;;
73699;SDS011;62005;50.082;8.988;2022-09-06T03:42:53;3.20;;;0.90;;
73699;SDS011;62005;50.082;8.988;2022-09-06T03:45:19;2.10;;;0.77;;
73699;SDS011;62005;50.082;8.988;2022-09-06T03:47:44;2.30;;;0.80;;
73699;SDS011;62005;50.082;8.988;2022-09-06T03:50:10;1.77;;;0.85;;
73699;SDS011;62005;50.082;8.988;2022-09-06T03:52:35;9.25;;;1.20;;
73699;SDS011;62005;50.082;8.988;2022-09-06T03:55:01;2.00;;;0.73;;
73699;SDS011;62005;50.082;8.988;2022-09-06T03:57:27;1.70;;;1.10;;
73699;SDS011;62005;50.082;8.988;2022-09-06T03:59:53;2.40;;;0.75;;
73699;SDS011;62005;50.082;8.988;2022-09-06T04:02:18;3.65;;;1.17;;
73699;SDS011;62005;50.082;8.988;2022-09-06T04:04:44;3.10;;;1.02;;
73699;SDS011;62005;50.082;8.988;2022-09-06T04:07:09;4.55;;;1.15;;
73699;SDS011;62005;50.082;8.988;2022-09-06T04:09:35;5.65;;;1.20;;
73699;SDS011;62005;50.082;8.988;2022-09-06T04:12:01;3.75;;;1.02;;
73699;SDS011;62005;50.082;8.988;2022-09-06T04:14:27;3.13;;;1.00;;
73699;SDS011;62005;50.082;8.988;2022-09-06T04:16:53;2.58;;;1.00;;
73699;SDS011;62005;50.082;8.988;2022-09-06T04:19:18;4.57;;;1.70;;
73699;SDS011;62005;50.082;8.988;2022-09-06T04:21:44;3.72;;;0.82;;
73699;SDS011;62005;50.082;8.988;2022-09-06T04:24:09;2.73;;;0.87;;
73699;SDS011;62005;50.082;8.988;2022-09-06T04:26:35;2.60;;;0.90;;
73699;SDS011;62005;50.082;8.988;2022-09-06T04:29:00;3.22;;;0.88;;
73699;SDS011;62005;50.082;8.988;2022-09-06T04:31:25;3.03;;;1.23;;
73699;SDS011;62005;50.082;8.988;2022-09-06T04:33:51;2.08;;;1.02;;
73699;SDS011;62005;50.082;8.988;2022-09-06T04:36:16;3.43;;;0.97;;
73699;SDS011;62005;50.082;8.988;2022-09-06T04:38:42;2.83;;;1.27;;
73699;SDS011;62005;50.082;8.988;2022-09-06T04:41:12;3.28;;;1.10;;
73699;SDS011;62005;50.082;8.988;2022-09-06T04:43:40;2.83;;;1.15;;
73699;SDS011;62005;50.082;8.988;2022-09-06T04:46:08;3.05;;;1.20;;
73699;SDS011;62005;50.082;8.988;2022-09-06T04:48:39;2.63;;;1.00;;
73699;SDS011;62005;50.082;8.988;2022-09-06T04:51:05;8.27;;;1.10;;
73699;SDS011;62005;50.082;8.988;2022-09-06T04:53:30;2.33;;;1.02;;
73699;SDS011;62005;50.082;8.988;2022-09-06T04:55:56;2.25;;;0.88;;
73699;SDS011;62005;50.082;8.988;2022-09-06T04:58:22;2.60;;;1.10;;
73699;SDS011;62005;50.082;8.988;2022-09-06T05:00:48;2.20;;;1.00;;
73699;SDS011;62005;50.082;8.988;2022-09-06T05:03:13;2.30;;;0.82;;
73699;SDS011;62005;50.082;8.988;2022-09-06T05:05:39;3.47;;;0.93;;
73699;SDS011;62005;50.082;8.988;2022-09-06T05:08:04;6.50;;;1.60;;
73699;SDS011;62005;50.082;8.988;2022-09-06T05:10:30;2.78;;;1.05;;
73699;SDS011;62005;50.082;8.988;2022-09-06T05:12:55;2.72;;;1.10;;
73699;SDS011;62005;50.082;8.988;2022-09-06T05:15:21;5.75;;;1.55;;
73699;SDS011;62005;50.082;8.988;2022-09-06T05:17:47;4.53;;;1.00;;
73699;SDS011;62005;50.082;8.988;2022-09-06T05:20:12;2.63;;;1.13;;
73699;SDS011;62005;50.082;8.988;2022-09-06T05:22:38;5.75;;;1.17;;
73699;SDS011;62005;50.082;8.988;2022-09-06T05:25:04;3.63;;;0.95;;
73699;SDS011;62005;50.082;8.988;2022-09-06T05:27:30;3.70;;;1.02;;
73699;SDS011;62005;50.082;8.988;2022-09-06T05:29:56;2.33;;;1.00;;
73699;SDS011;62005;50.082;8.988;2022-09-06T05:32:22;5.72;;;1.70;;
73699;SDS011;62005;50.082;8.988;2022-09-06T05:34:47;4.68;;;1.30;;
73699;SDS011;62005;50.082;8.988;2022-09-06T05:37:12;3.47;;;1.10;;
73699;SDS011;62005;50.082;8.988;2022-09-06T05:39:38;2.72;;;1.05;;
73699;SDS011;62005;50.082;8.988;2022-09-06T05:42:03;3.07;;;1.30;;
73699;SDS011;62005;50.082;8.988;2022-09-06T05:44:33;3.75;;;0.82;;
73699;SDS011;62005;50.082;8.988;2022-09-06T05:46:59;2.75;;;1.00;;
73699;SDS011;62005;50.082;8.988;2022-09-06T05:49:25;5.38;;;0.80;;
73699;SDS011;62005;50.082;8.988;2022-09-06T05:51:50;3.70;;;1.00;;
73699;SDS011;62005;50.082;8.988;2022-09-06T05:54:16;2.38;;;1.10;;
73699;SDS011;62005;50.082;8.988;2022-09-06T05:56:41;3.42;;;0.90;;
73699;SDS011;62005;50.082;8.988;2022-09-06T05:59:07;3.23;;;1.00;;
73699;SDS011;62005;50.082;8.988;2022-09-06T06:01:32;2.23;;;0.70;;
73699;SDS011;62005;50.082;8.988;2022-09-06T06:03:58;6.53;;;1.17;;
73699;SDS011;62005;50.082;8.988;2022-09-06T06:06:27;4.30;;;0.93;;
73699;SDS011;62005;50.082;8.988;2022-09-06T06:08:54;4.90;;;1.13;;
73699;SDS011;62005;50.082;8.988;2022-09-06T06:11:20;3.75;;;1.23;;
73699;SDS011;62005;50.082;8.988;2022-09-06T06:13:46;2.30;;;0.98;;
73699;SDS011;62005;50.082;8.988;2022-09-06T06:16:12;3.25;;;0.80;;
73699;SDS011;62005;50.082;8.988;2022-09-06T06:18:41;2.75;;;1.02;;
73699;SDS011;62005;50.082;8.988;2022-09-06T06:21:09;4.10;;;1.33;;
73699;SDS011;62005;50.082;8.988;2022-09-06T06:23:34;6.40;;;1.35;;
73699;SDS011;62005;50.082;8.988;2022-09-06T06:26:00;4.55;;;1.17;;
73699;SDS011;62005;50.082;8.988;2022-09-06T06:28:25;4.03;;;1.08;;
73699;SDS011;62005;50.082;8.988;2022-09-06T06:30:50;2.63;;;1.20;;
73699;SDS011;62005;50.082;8.988;2022-09-06T06:33:16;4.20;;;1.10;;
73699;SDS011;62005;50.082;8.988;2022-09-06T06:35:54;2.87;;;1.00;;
73699;SDS011;62005;50.082;8.988;2022-09-06T06:38:28;4.32;;;1.13;;
73699;SDS011;62005;50.082;8.988;2022-09-06T06:40:58;8.75;;;0.95;;
73699;SDS011;62005;50.082;8.988;2022-09-06T06:43:24;4.07;;;0.70;;
73699;SDS011;62005;50.082;8.988;2022-09-06T06:45:50;1.95;;;0.80;;
73699;SDS011;62005;50.082;8.988;2022-09-06T06:48:15;2.83;;;0.90;;
73699;SDS011;62005;50.082;8.988;2022-09-06T06:50:41;5.72;;;0.95;;
73699;SDS011;62005;50.082;8.988;2022-09-06T06:53:06;5.43;;;0.80;;
73699;SDS011;62005;50.082;8.988;2022-09-06T06:55:32;3.93;;;0.87;;
73699;SDS011;62005;50.082;8.988;2022-09-06T06:57:58;5.65;;;1.15;;
73699;SDS011;62005;50.082;8.988;2022-09-06T07:02:49;4.53;;;1.00;;
73699;SDS011;62005;50.082;8.988;2022-09-06T07:05:14;7.23;;;0.70;;
73699;SDS011;62005;50.082;8.988;2022-09-06T07:07:40;1.92;;;0.77;;
73699;SDS011;62005;50.082;8.988;2022-09-06T07:10:05;3.77;;;0.60;;
73699;SDS011;62005;50.082;8.988;2022-09-06T07:12:31;2.20;;;0.68;;
73699;SDS011;62005;50.082;8.988;2022-09-06T07:14:56;3.25;;;0.73;;
73699;SDS011;62005;50.082;8.988;2022-09-06T07:17:21;3.20;;;0.90;;
73699;SDS011;62005;50.082;8.988;2022-09-06T07:19:47;4.90;;;0.73;;
73699;SDS011;62005;50.082;8.988;2022-09-06T07:22:12;3.73;;;0.60;;
73699;SDS011;62005;50.082;8.988;2022-09-06T07:24:37;3.17;;;0.60;;
73699;SDS011;62005;50.082;8.988;2022-09-06T07:27:03;7.03;;;0.60;;
73699;SDS011;62005;50.082;8.988;2022-09-06T07:29:28;2.73;;;0.60;;
73699;SDS011;62005;50.082;8.988;2022-09-06T07:31:54;4.30;;;0.60;;
73699;SDS011;62005;50.082;8.988;2022-09-06T07:34:21;2.92;;;0.73;;
73699;SDS011;62005;50.082;8.988;2022-09-06T07:36:52;4.70;;;0.68;;
73699;SDS011;62005;50.082;8.988;2022-09-06T07:39:18;7.63;;;0.82;;
73699;SDS011;62005;50.082;8.988;2022-09-06T07:41:44;4.38;;;0.55;;
73699;SDS011;62005;50.082;8.988;2022-09-06T07:44:10;2.23;;;0.50;;
73699;SDS011;62005;50.082;8.988;2022-09-06T07:46:35;4.80;;;0.60;;
73699;SDS011;62005;50.082;8.988;2022-09-06T07:49:02;3.70;;;0.68;;
73699;SDS011;62005;50.082;8.988;2022-09-06T07:51:29;1.80;;;0.63;;
73699;SDS011;62005;50.082;8.988;2022-09-06T07:53:55;2.15;;;0.60;;
73699;SDS011;62005;50.082;8.988;2022-09-06T07:56:21;4.90;;;0.60;;
73699;SDS011;62005;50.082;8.988;2022-09-06T07:58:47;2.97;;;0.35;;
73699;SDS011;62005;50.082;8.988;2022-09-06T08:04:01;5.60;;;0.50;;
73699;SDS011;62005;50.082;8.988;2022-09-06T08:06:32;2.88;;;0.52;;
73699;SDS011;62005;50.082;8.988;2022-09-06T08:08:58;3.45;;;0.55;;
73699;SDS011;62005;50.082;8.988;2022-09-06T08:13:52;2.30;;;0.43;;
73699;SDS011;62005;50.082;8.988;2022-09-06T08:16:19;1.27;;;0.22;;
73699;SDS011;62005;50.082;8.988;2022-09-06T08:18:52;1.80;;;0.60;;
73699;SDS011;62005;50.082;8.988;2022-09-06T08:21:20;2.28;;;0.40;;
73699;SDS011;62005;50.082;8.988;2022-09-06T08:23:51;1.75;;;0.40;;
73699;SDS011;62005;50.082;8.988;2022-09-06T08:26:19;1.88;;;0.50;;
73699;SDS011;62005;50.082;8.988;2022-09-06T08:28:45;2.30;;;0.25;;
73699;SDS011;62005;50.082;8.988;2022-09-06T08:31:11;2.22;;;0.40;;
73699;SDS011;62005;50.082;8.988;2022-09-06T08:33:39;1.20;;;0.32;;
73699;SDS011;62005;50.082;8.988;2022-09-06T08:36:05;1.30;;;0.38;;
73699;SDS011;62005;50.082;8.988;2022-09-06T08:41:07;2.38;;;0.40;;
73699;SDS011;62005;50.082;8.988;2022-09-06T08:43:33;2.45;;;0.30;;
73699;SDS011;62005;50.082;8.988;2022-09-06T08:45:59;2.28;;;0.38;;
73699;SDS011;62005;50.082;8.988;2022-09-06T08:48:26;8.45;;;0.50;;
73699;SDS011;62005;50.082;8.988;2022-09-06T08:51:00;2.53;;;0.52;;
73699;SDS011;62005;50.082;8.988;2022-09-06T08:53:28;2.13;;;0.40;;
73699;SDS011;62005;50.082;8.988;2022-09-06T08:55:57;1.23;;;0.30;;
73699;SDS011;62005;50.082;8.988;2022-09-06T09:01:22;1.85;;;0.32;;
73699;SDS011;62005;50.082;8.988;2022-09-06T09:03:51;1.73;;;0.43;;
73699;SDS011;62005;50.082;8.988;2022-09-06T09:06:20;3.67;;;0.40;;
73699;SDS011;62005;50.082;8.988;2022-09-06T09:09:07;2.45;;;0.20;;
73699;SDS011;62005;50.082;8.988;2022-09-06T09:11:36;5.63;;;0.40;;
73699;SDS011;62005;50.082;8.988;2022-09-06T09:14:19;2.38;;;0.32;;
73699;SDS011;62005;50.082;8.988;2022-09-06T09:16:51;2.25;;;0.45;;
73699;SDS011;62005;50.082;8.988;2022-09-06T09:19:19;2.85;;;0.30;;
73699;SDS011;62005;50.082;8.988;2022-09-06T09:21:44;2.85;;;0.40;;
73699;SDS011;62005;50.082;8.988;2022-09-06T09:24:10;1.70;;;0.38;;
73699;SDS011;62005;50.082;8.988;2022-09-06T09:26:46;2.38;;;0.38;;
73699;SDS011;62005;50.082;8.988;2022-09-06T09:29:16;1.02;;;0.22;;
73699;SDS011;62005;50.082;8.988;2022-09-06T09:31:45;2.67;;;0.50;;
73699;SDS011;62005;50.082;8.988;2022-09-06T09:34:26;2.20;;;0.22;;
73699;SDS011;62005;50.082;8.988;2022-09-06T09:39:37;3.35;;;0.40;;
73699;SDS011;62005;50.082;8.988;2022-09-06T09:42:03;2.85;;;0.38;;
73699;SDS011;62005;50.082;8.988;2022-09-06T09:44:29;2.65;;;0.30;;
73699;SDS011;62005;50.082;8.988;2022-09-06T09:46:55;5.90;;;0.85;;
73699;SDS011;62005;50.082;8.988;2022-09-06T09:51:48;3.07;;;0.30;;
73699;SDS011;62005;50.082;8.988;2022-09-06T09:54:30;2.05;;;0.40;;
73699;SDS011;62005;50.082;8.988;2022-09-06T09:56:59;4.00;;;0.30;;
73699;SDS011;62005;50.082;8.988;2022-09-06T10:01:51;3.72;;;0.50;;
73699;SDS011;62005;50.082;8.988;2022-09-06T10:04:35;2.20;;;0.30;;
73699;SDS011;62005;50.082;8.988;2022-09-06T10:09:40;2.30;;;0.20;;
73699;SDS011;62005;50.082;8.988;2022-09-06T10:12:08;3.67;;;0.43;;
73699;SDS011;62005;50.082;8.988;2022-09-06T10:14:40;1.65;;;0.30;;
73699;SDS011;62005;50.082;8.988;2022-09-06T10:17:14;2.40;;;0.30;;
73699;SDS011;62005;50.082;8.988;2022-09-06T10:19:43;2.15;;;0.22;;
73699;SDS011;62005;50.082;8.988;2022-09-06T10:22:12;1.95;;;0.30;;
73699;SDS011;62005;50.082;8.988;2022-09-06T10:30:34;2.92;;;0.25;;
73699;SDS011;62005;50.082;8.988;2022-09-06T10:33:15;2.50;;;0.20;;
73699;SDS011;62005;50.082;8.988;2022-09-06T10:35:49;2.22;;;0.10;;
73699;SDS011;62005;50.082;8.988;2022-09-06T10:41:20;1.30;;;0.20;;
73699;SDS011;62005;50.082;8.988;2022-09-06T10:46:47;2.38;;;0.10;;
73699;SDS011;62005;50.082;8.988;2022-09-06T10:49:19;2.60;;;0.30;;
73699;SDS011;62005;50.082;8.988;2022-09-06T10:51:48;0.83;;;0.20;;
73699;SDS011;62005;50.082;8.988;2022-09-06T10:54:22;1.13;;;0.10;;
73699;SDS011;62005;50.082;8.988;2022-09-06T10:59:40;2.67;;;0.10;;
73699;SDS011;62005;50.082;8.988;2022-09-06T11:02:34;2.00;;;0.30;;
73699;SDS011;62005;50.082;8.988;2022-09-06T11:07:45;1.65;;;0.10;;
73699;SDS011;62005;50.082;8.988;2022-09-06T11:10:33;1.10;;;0.10;;
73699;SDS011;62005;50.082;8.988;2022-09-06T11:13:08;2.80;;;0.10;;
73699;SDS011;62005;50.082;8.988;2022-09-06T11:23:43;2.08;;;0.30;;
73699;SDS011;62005;50.082;8.988;2022-09-06T11:29:03;1.20;;;0.15;;
73699;SDS011;62005;50.082;8.988;2022-09-06T11:31:33;1.02;;;0.10;;
73699;SDS011;62005;50.082;8.988;2022-09-06T11:37:26;1.83;;;0.15;;
73699;SDS011;62005;50.082;8.988;2022-09-06T11:40:16;1.15;;;0.10;;
73699;SDS011;62005;50.082;8.988;2022-09-06T11:47:46;1.15;;;0.10;;
73699;SDS011;62005;50.082;8.988;2022-09-06T11:52:48;2.60;;;0.17;;
73699;SDS011;62005;50.082;8.988;2022-09-06T11:55:20;1.45;;;0.20;;
73699;SDS011;62005;50.082;8.988;2022-09-06T11:57:52;0.80;;;0.10;;
73699;SDS011;62005;50.082;8.988;2022-09-06T12:00:21;1.70;;;0.10;;
73699;SDS011;62005;50.082;8.988;2022-09-06T12:02:48;2.90;;;0.10;;
73699;SDS011;62005;50.082;8.988;2022-09-06T12:05:16;0.60;;;0.10;;
73699;SDS011;62005;50.082;8.988;2022-09-06T12:10:57;4.68;;;1.20;;
73699;SDS011;62005;50.082;8.988;2022-09-06T12:13:37;1.50;;;0.10;;
73699;SDS011;62005;50.082;8.988;2022-09-06T12:16:09;1.10;;;0.20;;
73699;SDS011;62005;50.082;8.988;2022-09-06T12:21:07;2.45;;;0.10;;
73699;SDS011;62005;50.082;8.988;2022-09-06T12:26:00;1.17;;;0.10;;
73699;SDS011;62005;50.082;8.988;2022-09-06T12:28:28;0.55;;;0.10;;
73699;SDS011;62005;50.082;8.988;2022-09-06T12:30:59;0.93;;;0.10;;
73699;SDS011;62005;50.082;8.988;2022-09-06T12:33:31;0.95;;;0.10;;
73699;SDS011;62005;50.082;8.988;2022-09-06T12:38:52;1.33;;;0.10;;
73699;SDS011;62005;50.082;8.988;2022-09-06T12:41:38;1.58;;;0.10;;
73699;SDS011;62005;50.082;8.988;2022-09-06T12:44:07;0.63;;;0.10;;
73699;SDS011;62005;50.082;8.988;2022-09-06T12:46:33;1.65;;;0.10;;
73699;SDS011;62005;50.082;8.988;2022-09-06T12:51:26;1.20;;;0.30;;
73699;SDS011;62005;50.082;8.988;2022-09-06T12:53:51;1.67;;;0.20;;
73699;SDS011;62005;50.082;8.988;2022-09-06T12:56:19;1.95;;;0.20;;
73699;SDS011;62005;50.082;8.988;2022-09-06T12:58:46;0.95;;;0.13;;
73699;SDS011;62005;50.082;8.988;2022-09-06T13:03:42;1.42;;;0.10;;
73699;SDS011;62005;50.082;8.988;2022-09-06T13:06:17;1.35;;;0.00;;
73699;SDS011;62005;50.082;8.988;2022-09-06T13:08:48;2.28;;;0.17;;
73699;SDS011;62005;50.082;8.988;2022-09-06T13:11:19;2.03;;;0.30;;
73699;SDS011;62005;50.082;8.988;2022-09-06T13:13:55;0.65;;;0.10;;
73699;SDS011;62005;50.082;8.988;2022-09-06T13:16:24;4.22;;;0.10;;
73699;SDS011;62005;50.082;8.988;2022-09-06T13:18:52;4.35;;;0.20;;
73699;SDS011;62005;50.082;8.988;2022-09-06T13:21:25;2.85;;;0.10;;
73699;SDS011;62005;50.082;8.988;2022-09-06T13:23:55;1.35;;;0.10;;
73699;SDS011;62005;50.082;8.988;2022-09-06T13:29:20;1.85;;;0.22;;
73699;SDS011;62005;50.082;8.988;2022-09-06T13:31:50;0.93;;;0.10;;
73699;SDS011;62005;50.082;8.988;2022-09-06T13:36:50;2.63;;;0.10;;
73699;SDS011;62005;50.082;8.988;2022-09-06T13:42:27;1.92;;;0.20;;
73699;SDS011;62005;50.082;8.988;2022-09-06T13:47:49;1.67;;;0.10;;
73699;SDS011;62005;50.082;8.988;2022-09-06T13:50:14;1.05;;;0.10;;
73699;SDS011;62005;50.082;8.988;2022-09-06T13:52:40;3.30;;;0.17;;
73699;SDS011;62005;50.082;8.988;2022-09-06T13:55:05;1.23;;;0.10;;
73699;SDS011;62005;50.082;8.988;2022-09-06T13:57:31;2.28;;;0.10;;
73699;SDS011;62005;50.082;8.988;2022-09-06T13:59:56;2.53;;;0.10;;
73699;SDS011;62005;50.082;8.988;2022-09-06T14:02:22;1.30;;;0.10;;
73699;SDS011;62005;50.082;8.988;2022-09-06T14:04:48;3.80;;;0.20;;
73699;SDS011;62005;50.082;8.988;2022-09-06T14:07:14;0.93;;;0.10;;
73699;SDS011;62005;50.082;8.988;2022-09-06T14:09:39;2.40;;;0.20;;
73699;SDS011;62005;50.082;8.988;2022-09-06T14:12:05;2.60;;;0.10;;
73699;SDS011;62005;50.082;8.988;2022-09-06T14:14:30;2.83;;;0.10;;
73699;SDS011;62005;50.082;8.988;2022-09-06T14:16:56;0.80;;;0.10;;
73699;SDS011;62005;50.082;8.988;2022-09-06T14:19:22;1.50;;;0.17;;
73699;SDS011;62005;50.082;8.988;2022-09-06T14:21:47;2.30;;;0.25;;
73699;SDS011;62005;50.082;8.988;2022-09-06T14:24:13;2.30;;;0.20;;
73699;SDS011;62005;50.082;8.988;2022-09-06T14:26:38;3.03;;;0.10;;
73699;SDS011;62005;50.082;8.988;2022-09-06T14:29:03;2.42;;;0.20;;
73699;SDS011;62005;50.082;8.988;2022-09-06T14:31:30;1.60;;;0.22;;
73699;SDS011;62005;50.082;8.988;2022-09-06T14:33:58;2.28;;;0.30;;
73699;SDS011;62005;50.082;8.988;2022-09-06T14:36:26;2.05;;;0.20;;
73699;SDS011;62005;50.082;8.988;2022-09-06T14:38:53;1.77;;;0.10;;
73699;SDS011;62005;50.082;8.988;2022-09-06T14:41:20;2.70;;;0.13;;
73699;SDS011;62005;50.082;8.988;2022-09-06T14:43:49;1.07;;;0.20;;
73699;SDS011;62005;50.082;8.988;2022-09-06T14:46:17;1.33;;;0.10;;
73699;SDS011;62005;50.082;8.988;2022-09-06T14:48:43;2.30;;;0.10;;
73699;SDS011;62005;50.082;8.988;2022-09-06T14:51:11;0.85;;;0.13;;
73699;SDS011;62005;50.082;8.988;2022-09-06T14:53:43;2.10;;;0.38;;
73699;SDS011;62005;50.082;8.988;2022-09-06T14:56:09;2.38;;;0.20;;
73699;SDS011;62005;50.082;8.988;2022-09-06T14:58:36;1.70;;;0.20;;
73699;SDS011;62005;50.082;8.988;2022-09-06T15:01:06;2.40;;;0.20;;
73699;SDS011;62005;50.082;8.988;2022-09-06T15:03:32;3.88;;;0.20;;
73699;SDS011;62005;50.082;8.988;2022-09-06T15:05:59;2.72;;;0.20;;
73699;SDS011;62005;50.082;8.988;2022-09-06T15:08:24;5.85;;;0.20;;
73699;SDS011;62005;50.082;8.988;2022-09-06T15:10:53;0.83;;;0.10;;
73699;SDS011;62005;50.082;8.988;2022-09-06T15:13:19;3.90;;;0.40;;
73699;SDS011;62005;50.082;8.988;2022-09-06T15:15:45;6.28;;;0.30;;
73699;SDS011;62005;50.082;8.988;2022-09-06T15:18:10;3.47;;;0.22;;
73699;SDS011;62005;50.082;8.988;2022-09-06T15:20:36;2.75;;;0.15;;
73699;SDS011;62005;50.082;8.988;2022-09-06T15:23:01;1.47;;;0.20;;
73699;SDS011;62005;50.082;8.988;2022-09-06T15:25:28;2.25;;;0.20;;
73699;SDS011;62005;50.082;8.988;2022-09-06T15:27:53;2.78;;;0.30;;
73699;SDS011;62005;50.082;8.988;2022-09-06T15:30:19;2.50;;;0.10;;
73699;SDS011;62005;50.082;8.988;2022-09-06T15:32:44;2.75;;;0.20;;
73699;SDS011;62005;50.082;8.988;2022-09-06T15:35:10;1.85;;;0.20;;
73699;SDS011;62005;50.082;8.988;2022-09-06T15:37:35;1.95;;;0.10;;
73699;SDS011;62005;50.082;8.988;2022-09-06T15:40:01;3.25;;;0.10;;
73699;SDS011;62005;50.082;8.988;2022-09-06T15:42:27;2.70;;;0.22;;
73699;SDS011;62005;50.082;8.988;2022-09-06T15:44:52;8.55;;;1.00;;
73699;SDS011;62005;50.082;8.988;2022-09-06T15:47:17;4.25;;;0.32;;
73699;SDS011;62005;50.082;8.988;2022-09-06T15:52:09;1.63;;;0.10;;
73699;SDS011;62005;50.082;8.988;2022-09-06T15:54:34;5.50;;;0.20;;
73699;SDS011;62005;50.082;8.988;2022-09-06T15:57:18;1.60;;;0.10;;
73699;SDS011;62005;50.082;8.988;2022-09-06T15:59:44;3.50;;;0.20;;
73699;SDS011;62005;50.082;8.988;2022-09-06T16:02:09;2.03;;;0.30;;
73699;SDS011;62005;50.082;8.988;2022-09-06T16:04:35;3.90;;;0.20;;
73699;SDS011;62005;50.082;8.988;2022-09-06T16:07:00;4.38;;;0.40;;
73699;SDS011;62005;50.082;8.988;2022-09-06T16:09:26;2.45;;;0.20;;
73699;SDS011;62005;50.082;8.988;2022-09-06T16:11:52;2.10;;;0.20;;
73699;SDS011;62005;50.082;8.988;2022-09-06T16:14:18;4.85;;;0.22;;
73699;SDS011;62005;50.082;8.988;2022-09-06T16:16:43;1.45;;;0.10;;
73699;SDS011;62005;50.082;8.988;2022-09-06T16:19:10;4.10;;;0.30;;
73699;SDS011;62005;50.082;8.988;2022-09-06T16:21:37;2.53;;;0.30;;
73699;SDS011;62005;50.082;8.988;2022-09-06T16:24:05;5.60;;;0.30;;
73699;SDS011;62005;50.082;8.988;2022-09-06T16:26:33;4.65;;;0.40;;
73699;SDS011;62005;50.082;8.988;2022-09-06T16:29:00;2.25;;;0.20;;
73699;SDS011;62005;50.082;8.988;2022-09-06T16:31:26;3.88;;;0.40;;
73699;SDS011;62005;50.082;8.988;2022-09-06T16:36:18;2.53;;;0.27;;
73699;SDS011;62005;50.082;8.988;2022-09-06T16:38:45;4.05;;;0.40;;
73699;SDS011;62005;50.082;8.988;2022-09-06T16:41:24;5.47;;;0.35;;
73699;SDS011;62005;50.082;8.988;2022-09-06T16:43:51;2.08;;;0.20;;
73699;SDS011;62005;50.082;8.988;2022-09-06T16:46:17;3.55;;;0.30;;
73699;SDS011;62005;50.082;8.988;2022-09-06T16:48:54;3.45;;;0.40;;
73699;SDS011;62005;50.082;8.988;2022-09-06T16:51:22;3.78;;;0.20;;
73699;SDS011;62005;50.082;8.988;2022-09-06T16:53:49;1.75;;;0.25;;
73699;SDS011;62005;50.082;8.988;2022-09-06T16:56:17;6.00;;;0.30;;
73699;SDS011;62005;50.082;8.988;2022-09-06T16:58:48;2.15;;;0.22;;
73699;SDS011;62005;50.082;8.988;2022-09-06T17:01:16;5.10;;;0.20;;
73699;SDS011;62005;50.082;8.988;2022-09-06T17:03:42;3.42;;;0.40;;
73699;SDS011;62005;50.082;8.988;2022-09-06T17:06:07;2.70;;;0.20;;
73699;SDS011;62005;50.082;8.988;2022-09-06T17:08:33;3.70;;;0.30;;
73699;SDS011;62005;50.082;8.988;2022-09-06T17:11:04;5.43;;;0.70;;